Marion, IN

6:14 AM EDT on August 26, 2016 (GMT -0400)
KB9CQZ Brinker Heights | | Change Station
Active Advisory: Special Statement Active Notice: Local Storm Report

Elev 890 ft 40.57 °N, 85.64 °W | Updated 3 seconds ago

Scattered Clouds
Scattered Clouds
69.3 °F
Feels Like 69.3 °F
N
0.0
Wind Variable Wind from North
Gusts 0.0 mph

Today
High -- | Low -- °F
--% Chance of Precip.
Yesterday
High -- | Low -- °F
Precip. -- in
Pressure 30.12 in
Visibility 5.0 miles
Clouds Scattered Clouds 300 ft
Dew Point 68 °F
Humidity 97%
Rainfall 0.00 in
Snow Depth Not available.
7:04 AM 8:23 PM
Waning Crescent, 36% visible
METAR KMZZ 260955Z AUTO 00000KT 5SM BR SCT003 19/19 A3012 RMK AO2 T01910191
Pressure 30.12 in
Visibility 5.0 miles
Clouds Scattered Clouds 300 ft
Dew Point 68 °F
Humidity 97%
Rainfall 0.00 in
Snow Depth Not available.
7:04 AM 8:23 PM
Waning Crescent, 36% visible
METAR KMZZ 260955Z AUTO 00000KT 5SM BR SCT003 19/19 A3012 RMK AO2 T01910191

10-Day Weather Forecast

Almanac

Astronomy

Aug. 26, 2016 Rise Set
Actual Time
Civil Twilight
Nautical Twilight
Astronomical Twilight
Moon
Length of Visible Light
Length of Day
Tomorrow will be .
, % of the Moon is Illuminated

Today's Extremes

State Highs State Lows

Community

WunderPhotos

Upload Photos

1,935,069 photos uploaded!

WunderBlog® & News

Nearby

Air Quality

  Air Quality AQ Index Pollutant
Not available.

Snow Depth

Station Depth Elevation

Earthquake Activity

City Distance Mag. Time & Date
Minimum magnitude displayed is 2.5.

Coastal Water Temperatures

Place Temperature

Stations

Nearby Weather Stations

Station Location Temp. Windchill Dew Point Humidity Wind Precip. Elev Updated Type
                   

Watches & Warnings

Special Statement
Issued: 3:54 AM CDT Aug. 26, 2016 – National Weather Service

... Patchy dense fog early this morning...

Fog will continue across much of the area early this morning and
may be dense in some, mainly rural, locations. Visibilities are
expected to improve shortly after sunrise. In the meantime, people
should use extra caution when driving and be prepared to slow down
when fog banks are encountered.